Riverside, California
Current Conditions -  °F | °C
As of 5:53 PM on Friday 26 Dec 2014 (Local Time) from KRAL Reporting Station
Clear Clear  
Wind Chill: 54°   Ceiling: Unl
Heat Index: 54°   Visibility: 10mi
Dew Point: 10°   Wind: 8mph
Humidity: 17%   Direction: 10°N
Pressure: 30.11"   Gusts: 21mph
Location:  33.98°N, 117.37°W
Report Text: KRAL 270153Z 01007G18KT 10SM CLR 12/M12 A3011 RMK AO2 SLP186 T01221122
Loading
Personal Weather Stations






























Interactive Weather Map New forecast layout! Learn more

10-Day Weather Forecast

Advertisements
Track Severe Weather on mobile